sensor_id;sensor_type;location;lat;lon;timestamp;pressure;altitude;pressure_sealevel;temperature;humidity
23016;BME280;11674;52.428;13.584;2023-01-31T00:01:49;101036.91;;;6.04;83.14
23016;BME280;11674;52.428;13.584;2023-01-31T00:06:56;101041.84;;;6.02;83.22
23016;BME280;11674;52.428;13.584;2023-01-31T00:12:03;101053.72;;;6.03;83.26
23016;BME280;11674;52.428;13.584;2023-01-31T00:17:10;101051.47;;;6.00;83.09
23016;BME280;11674;52.428;13.584;2023-01-31T00:22:17;101054.69;;;5.97;83.20
23016;BME280;11674;52.428;13.584;2023-01-31T00:27:31;101067.06;;;5.94;83.25
23016;BME280;11674;52.428;13.584;2023-01-31T00:32:38;101065.22;;;6.00;83.49
23016;BME280;11674;52.428;13.584;2023-01-31T00:37:45;101086.47;;;6.04;83.32
23016;BME280;11674;52.428;13.584;2023-01-31T00:42:52;101101.41;;;6.08;83.46
23016;BME280;11674;52.428;13.584;2023-01-31T00:47:59;101108.84;;;6.08;83.28
23016;BME280;11674;52.428;13.584;2023-01-31T00:53:07;101119.78;;;6.03;83.27
23016;BME280;11674;52.428;13.584;2023-01-31T00:58:16;101113.69;;;6.01;83.10
23016;BME280;11674;52.428;13.584;2023-01-31T01:03:23;101120.59;;;6.03;83.06
23016;BME280;11674;52.428;13.584;2023-01-31T01:08:30;101131.13;;;6.06;83.34
23016;BME280;11674;52.428;13.584;2023-01-31T01:13:37;101145.31;;;6.15;83.30
23016;BME280;11674;52.428;13.584;2023-01-31T01:18:45;101151.69;;;6.20;83.48
23016;BME280;11674;52.428;13.584;2023-01-31T01:23:55;101148.78;;;6.27;83.14
23016;BME280;11674;52.428;13.584;2023-01-31T01:29:03;101167.56;;;6.30;83.17
23016;BME280;11674;52.428;13.584;2023-01-31T01:34:13;101153.28;;;6.33;83.31
23016;BME280;11674;52.428;13.584;2023-01-31T01:39:20;101162.97;;;6.35;83.28
23016;BME280;11674;52.428;13.584;2023-01-31T01:44:54;101169.88;;;6.38;83.26
23016;BME280;11674;52.428;13.584;2023-01-31T01:50:09;101166.88;;;6.39;83.11
23016;BME280;11674;52.428;13.584;2023-01-31T01:55:22;101184.75;;;6.37;83.25
23016;BME280;11674;52.428;13.584;2023-01-31T02:00:30;101206.22;;;6.35;83.16
23016;BME280;11674;52.428;13.584;2023-01-31T02:05:44;101204.88;;;6.37;83.33
23016;BME280;11674;52.428;13.584;2023-01-31T02:11:33;101215.91;;;6.37;83.00
23016;BME280;11674;52.428;13.584;2023-01-31T02:16:21;101222.13;;;6.33;83.05
23016;BME280;11674;52.428;13.584;2023-01-31T02:32:25;101232.34;;;6.32;83.13
23016;BME280;11674;52.428;13.584;2023-01-31T02:54:03;101250.00;;;6.36;83.25
23016;BME280;11674;52.428;13.584;2023-01-31T02:59:20;101252.19;;;6.34;83.02
23016;BME280;11674;52.428;13.584;2023-01-31T03:04:31;101268.16;;;6.32;82.97
23016;BME280;11674;52.428;13.584;2023-01-31T03:15:17;101267.03;;;6.17;82.74
23016;BME280;11674;52.428;13.584;2023-01-31T03:20:34;101271.88;;;6.10;82.70
23016;BME280;11674;52.428;13.584;2023-01-31T03:25:44;101275.03;;;6.02;82.83
23016;BME280;11674;52.428;13.584;2023-01-31T03:31:12;101286.47;;;5.94;82.65
23016;BME280;11674;52.428;13.584;2023-01-31T03:36:27;101300.72;;;5.91;82.68
23016;BME280;11674;52.428;13.584;2023-01-31T03:41:56;101307.19;;;5.85;82.67
23016;BME280;11674;52.428;13.584;2023-01-31T03:47:10;101309.84;;;5.80;82.59
23016;BME280;11674;52.428;13.584;2023-01-31T03:52:25;101310.22;;;5.72;82.54
23016;BME280;11674;52.428;13.584;2023-01-31T03:57:36;101314.44;;;5.63;82.66
23016;BME280;11674;52.428;13.584;2023-01-31T04:02:47;101308.03;;;5.57;82.64
23016;BME280;11674;52.428;13.584;2023-01-31T04:07:57;101314.00;;;5.54;82.81
23016;BME280;11674;52.428;13.584;2023-01-31T04:13:06;101326.78;;;5.49;82.73
23016;BME280;11674;52.428;13.584;2023-01-31T04:18:13;101324.56;;;5.46;82.71
23016;BME280;11674;52.428;13.584;2023-01-31T04:23:20;101329.72;;;5.42;82.62
23016;BME280;11674;52.428;13.584;2023-01-31T04:28:27;101323.00;;;5.38;82.61
23016;BME280;11674;52.428;13.584;2023-01-31T04:33:34;101326.22;;;5.35;82.37
23016;BME280;11674;52.428;13.584;2023-01-31T04:38:41;101324.22;;;5.31;82.54
23016;BME280;11674;52.428;13.584;2023-01-31T04:43:48;101335.72;;;5.28;82.57
23016;BME280;11674;52.428;13.584;2023-01-31T04:48:55;101337.28;;;5.24;82.42
23016;BME280;11674;52.428;13.584;2023-01-31T04:54:02;101357.59;;;5.23;82.57
23016;BME280;11674;52.428;13.584;2023-01-31T04:59:09;101366.91;;;5.22;82.71
23016;BME280;11674;52.428;13.584;2023-01-31T05:04:16;101369.66;;;5.22;82.58
23016;BME280;11674;52.428;13.584;2023-01-31T05:09:23;101376.84;;;5.23;82.67
23016;BME280;11674;52.428;13.584;2023-01-31T05:14:30;101380.19;;;5.25;82.76
23016;BME280;11674;52.428;13.584;2023-01-31T05:19:37;101389.03;;;5.27;82.84
23016;BME280;11674;52.428;13.584;2023-01-31T05:24:44;101387.72;;;5.29;82.86
23016;BME280;11674;52.428;13.584;2023-01-31T05:29:51;101367.63;;;5.29;82.75
23016;BME280;11674;52.428;13.584;2023-01-31T05:34:58;101367.13;;;5.32;82.82
23016;BME280;11674;52.428;13.584;2023-01-31T05:40:05;101359.75;;;5.32;82.93
23016;BME280;11674;52.428;13.584;2023-01-31T05:45:12;101363.69;;;5.36;83.06
23016;BME280;11674;52.428;13.584;2023-01-31T05:50:20;101375.84;;;5.40;83.00
23016;BME280;11674;52.428;13.584;2023-01-31T05:55:28;101385.66;;;5.48;83.00
23016;BME280;11674;52.428;13.584;2023-01-31T06:00:35;101380.03;;;5.54;83.12
23016;BME280;11674;52.428;13.584;2023-01-31T06:05:42;101395.31;;;5.62;83.21
23016;BME280;11674;52.428;13.584;2023-01-31T06:10:49;101393.03;;;5.70;83.12
23016;BME280;11674;52.428;13.584;2023-01-31T06:15:56;101394.00;;;5.76;83.17
23016;BME280;11674;52.428;13.584;2023-01-31T06:21:04;101390.88;;;5.84;83.14
23016;BME280;11674;52.428;13.584;2023-01-31T06:26:11;101398.66;;;5.87;83.15
23016;BME280;11674;52.428;13.584;2023-01-31T06:31:18;101408.91;;;5.91;83.07
23016;BME280;11674;52.428;13.584;2023-01-31T06:36:24;101401.59;;;5.97;83.22
23016;BME280;11674;52.428;13.584;2023-01-31T06:41:31;101412.97;;;6.00;83.17
23016;BME280;11674;52.428;13.584;2023-01-31T06:46:38;101410.06;;;6.07;83.24
23016;BME280;11674;52.428;13.584;2023-01-31T06:51:45;101414.00;;;6.11;83.09
23016;BME280;11674;52.428;13.584;2023-01-31T06:56:52;101412.66;;;6.13;83.17
23016;BME280;11674;52.428;13.584;2023-01-31T07:01:59;101421.03;;;6.18;83.10
23016;BME280;11674;52.428;13.584;2023-01-31T07:07:06;101418.03;;;6.20;83.01
23016;BME280;11674;52.428;13.584;2023-01-31T07:12:13;101430.81;;;6.26;83.05
23016;BME280;11674;52.428;13.584;2023-01-31T07:17:20;101425.06;;;6.27;83.07
23016;BME280;11674;52.428;13.584;2023-01-31T07:22:27;101424.00;;;6.28;83.10
23016;BME280;11674;52.428;13.584;2023-01-31T07:27:34;101426.22;;;6.31;83.03
23016;BME280;11674;52.428;13.584;2023-01-31T07:32:41;101395.13;;;6.31;82.97
23016;BME280;11674;52.428;13.584;2023-01-31T07:37:51;101397.63;;;6.32;82.86
23016;BME280;11674;52.428;13.584;2023-01-31T07:42:58;101410.56;;;6.32;82.84
23016;BME280;11674;52.428;13.584;2023-01-31T07:48:04;101412.56;;;6.36;83.04
23016;BME280;11674;52.428;13.584;2023-01-31T07:53:11;101425.00;;;6.39;83.12
23016;BME280;11674;52.428;13.584;2023-01-31T07:58:18;101414.84;;;6.39;83.01
23016;BME280;11674;52.428;13.584;2023-01-31T08:03:28;101418.44;;;6.40;83.15
23016;BME280;11674;52.428;13.584;2023-01-31T08:08:36;101403.81;;;6.39;82.98
23016;BME280;11674;52.428;13.584;2023-01-31T08:13:43;101413.41;;;6.37;83.05
23016;BME280;11674;52.428;13.584;2023-01-31T08:18:51;101407.91;;;6.37;82.99
23016;BME280;11674;52.428;13.584;2023-01-31T08:23:58;101417.59;;;6.39;83.11
23016;BME280;11674;52.428;13.584;2023-01-31T08:29:05;101414.31;;;6.42;83.13
23016;BME280;11674;52.428;13.584;2023-01-31T08:34:12;101408.09;;;6.47;83.17
23016;BME280;11674;52.428;13.584;2023-01-31T08:39:19;101404.72;;;6.45;83.04
23016;BME280;11674;52.428;13.584;2023-01-31T08:44:26;101398.97;;;6.46;83.14
23016;BME280;11674;52.428;13.584;2023-01-31T08:49:33;101407.56;;;6.50;83.26
23016;BME280;11674;52.428;13.584;2023-01-31T08:54:40;101403.91;;;6.44;82.70
23016;BME280;11674;52.428;13.584;2023-01-31T08:59:47;101388.38;;;6.38;82.91
23016;BME280;11674;52.428;13.584;2023-01-31T09:04:54;101387.03;;;6.41;83.18
23016;BME280;11674;52.428;13.584;2023-01-31T09:10:02;101378.59;;;6.47;83.46
23016;BME280;11674;52.428;13.584;2023-01-31T09:15:09;101371.94;;;6.60;83.38
23016;BME280;11674;52.428;13.584;2023-01-31T09:20:15;101373.69;;;6.66;83.17
23016;BME280;11674;52.428;13.584;2023-01-31T09:25:22;101358.25;;;6.65;83.27
23016;BME280;11674;52.428;13.584;2023-01-31T09:30:29;101372.88;;;6.65;83.26
23016;BME280;11674;52.428;13.584;2023-01-31T09:35:36;101355.25;;;6.66;83.27
23016;BME280;11674;52.428;13.584;2023-01-31T09:40:43;101351.16;;;6.69;83.32
23016;BME280;11674;52.428;13.584;2023-01-31T09:45:52;101339.63;;;6.72;83.46
23016;BME280;11674;52.428;13.584;2023-01-31T09:51:00;101340.38;;;6.84;83.42
23016;BME280;11674;52.428;13.584;2023-01-31T10:06:42;101313.69;;;7.06;83.60
23016;BME280;11674;52.428;13.584;2023-01-31T10:11:57;101305.88;;;7.19;83.80
23016;BME280;11674;52.428;13.584;2023-01-31T10:17:10;101296.88;;;7.29;83.83
23016;BME280;11674;52.428;13.584;2023-01-31T10:33:46;101277.47;;;7.40;83.56
23016;BME280;11674;52.428;13.584;2023-01-31T10:39:10;101262.81;;;7.40;83.48
23016;BME280;11674;52.428;13.584;2023-01-31T10:44:31;101247.91;;;7.41;83.44
23016;BME280;11674;52.428;13.584;2023-01-31T10:49:49;101248.38;;;7.33;82.68
23016;BME280;11674;52.428;13.584;2023-01-31T11:00:18;101238.00;;;7.18;83.07
23016;BME280;11674;52.428;13.584;2023-01-31T11:05:28;101227.84;;;7.24;83.34
23016;BME280;11674;52.428;13.584;2023-01-31T11:10:49;101217.13;;;7.27;83.55
23016;BME280;11674;52.428;13.584;2023-01-31T11:15:56;101197.94;;;7.37;83.50
23016;BME280;11674;52.428;13.584;2023-01-31T11:21:04;101193.81;;;7.40;83.38
23016;BME280;11674;52.428;13.584;2023-01-31T11:26:11;101179.53;;;7.43;83.32
23016;BME280;11674;52.428;13.584;2023-01-31T11:31:26;101164.63;;;7.44;83.28
23016;BME280;11674;52.428;13.584;2023-01-31T11:36:42;101161.56;;;7.40;83.06
23016;BME280;11674;52.428;13.584;2023-01-31T11:41:49;101141.16;;;7.15;82.00
23016;BME280;11674;52.428;13.584;2023-01-31T11:47:01;101130.91;;;6.89;81.84
23016;BME280;11674;52.428;13.584;2023-01-31T11:52:16;101138.66;;;6.70;82.25
23016;BME280;11674;52.428;13.584;2023-01-31T11:57:32;101110.97;;;6.60;82.65
23016;BME280;11674;52.428;13.584;2023-01-31T12:02:40;101097.97;;;6.56;82.47
23016;BME280;11674;52.428;13.584;2023-01-31T12:07:50;101085.31;;;6.60;83.08
23016;BME280;11674;52.428;13.584;2023-01-31T12:24:17;101024.19;;;6.63;82.41
23016;BME280;11674;52.428;13.584;2023-01-31T12:40:36;101000.44;;;6.35;82.98
23016;BME280;11674;52.428;13.584;2023-01-31T12:46:17;100990.19;;;6.31;82.97
23016;BME280;11674;52.428;13.584;2023-01-31T12:57:20;100981.63;;;6.27;83.21
23016;BME280;11674;52.428;13.584;2023-01-31T13:02:39;100960.66;;;6.26;83.07
23016;BME280;11674;52.428;13.584;2023-01-31T13:08:04;100975.19;;;6.22;83.17
23016;BME280;11674;52.428;13.584;2023-01-31T13:13:18;100946.44;;;6.13;83.01
23016;BME280;11674;52.428;13.584;2023-01-31T13:18:31;100939.75;;;6.04;83.30
23016;BME280;11674;52.428;13.584;2023-01-31T13:23:42;100939.69;;;5.99;83.32
23016;BME280;11674;52.428;13.584;2023-01-31T13:28:57;100934.66;;;5.96;83.53
23016;BME280;11674;52.428;13.584;2023-01-31T13:34:13;100934.66;;;5.96;83.47
23016;BME280;11674;52.428;13.584;2023-01-31T13:39:25;100922.00;;;5.95;83.54
23016;BME280;11674;52.428;13.584;2023-01-31T13:44:33;100930.25;;;5.95;83.72
23016;BME280;11674;52.428;13.584;2023-01-31T13:50:12;100914.00;;;5.93;83.85
23016;BME280;11674;52.428;13.584;2023-01-31T14:00:43;100906.66;;;5.99;83.88
23016;BME280;11674;52.428;13.584;2023-01-31T14:05:55;100896.44;;;5.99;83.89
23016;BME280;11674;52.428;13.584;2023-01-31T14:16:38;100906.16;;;6.07;84.17
23016;BME280;11674;52.428;13.584;2023-01-31T14:22:15;100893.56;;;6.11;84.27
23016;BME280;11674;52.428;13.584;2023-01-31T14:27:26;100900.78;;;6.17;84.21
23016;BME280;11674;52.428;13.584;2023-01-31T14:54:46;100859.94;;;6.35;84.29
23016;BME280;11674;52.428;13.584;2023-01-31T15:05:23;100855.28;;;6.36;84.35
23016;BME280;11674;52.428;13.584;2023-01-31T15:10:54;100853.34;;;6.36;84.34
23016;BME280;11674;52.428;13.584;2023-01-31T15:16:05;100852.53;;;6.36;84.40
23016;BME280;11674;52.428;13.584;2023-01-31T15:21:19;100859.19;;;6.40;84.50
23016;BME280;11674;52.428;13.584;2023-01-31T15:26:32;100857.81;;;6.42;84.50
23016;BME280;11674;52.428;13.584;2023-01-31T15:31:41;100843.25;;;6.47;84.48
23016;BME280;11674;52.428;13.584;2023-01-31T15:42:25;100832.88;;;6.59;84.46
23016;BME280;11674;52.428;13.584;2023-01-31T15:47:31;100857.75;;;6.64;84.30
23016;BME280;11674;52.428;13.584;2023-01-31T15:52:38;100833.22;;;6.67;84.36
23016;BME280;11674;52.428;13.584;2023-01-31T15:57:57;100828.31;;;6.74;84.39
23016;BME280;11674;52.428;13.584;2023-01-31T16:03:06;100825.91;;;6.78;84.44
23016;BME280;11674;52.428;13.584;2023-01-31T16:13:40;100824.56;;;6.85;84.50
23016;BME280;11674;52.428;13.584;2023-01-31T16:18:51;100809.97;;;6.90;84.64
23016;BME280;11674;52.428;13.584;2023-01-31T16:29:17;100823.28;;;7.03;84.58
23016;BME280;11674;52.428;13.584;2023-01-31T16:34:27;100812.03;;;7.09;84.54
23016;BME280;11674;52.428;13.584;2023-01-31T16:39:42;100833.03;;;7.15;84.49
23016;BME280;11674;52.428;13.584;2023-01-31T16:44:50;100837.47;;;7.21;84.49
23016;BME280;11674;52.428;13.584;2023-01-31T16:55:22;100824.00;;;7.30;84.32
23016;BME280;11674;52.428;13.584;2023-01-31T17:05:39;100797.00;;;7.32;84.18
23016;BME280;11674;52.428;13.584;2023-01-31T17:10:47;100782.94;;;7.33;84.19
23016;BME280;11674;52.428;13.584;2023-01-31T17:15:54;100778.81;;;7.36;84.10
23016;BME280;11674;52.428;13.584;2023-01-31T17:21:03;100793.97;;;7.38;84.07
23016;BME280;11674;52.428;13.584;2023-01-31T17:26:14;100804.19;;;7.38;84.14
23016;BME280;11674;52.428;13.584;2023-01-31T17:31:23;100775.75;;;7.32;84.17
23016;BME280;11674;52.428;13.584;2023-01-31T17:36:29;100780.72;;;7.30;84.29
23016;BME280;11674;52.428;13.584;2023-01-31T17:41:37;100771.88;;;7.28;84.38
23016;BME280;11674;52.428;13.584;2023-01-31T17:46:44;100776.00;;;7.26;84.49
23016;BME280;11674;52.428;13.584;2023-01-31T17:51:51;100747.06;;;7.28;84.71
23016;BME280;11674;52.428;13.584;2023-01-31T17:56:59;100748.44;;;7.31;84.75
23016;BME280;11674;52.428;13.584;2023-01-31T18:02:06;100731.34;;;7.34;84.54
23016;BME280;11674;52.428;13.584;2023-01-31T18:07:15;100712.59;;;7.41;84.64
23016;BME280;11674;52.428;13.584;2023-01-31T18:12:23;100684.50;;;7.49;84.63
23016;BME280;11674;52.428;13.584;2023-01-31T18:17:30;100702.44;;;7.51;84.39
23016;BME280;11674;52.428;13.584;2023-01-31T18:22:36;100716.78;;;7.53;84.38
23016;BME280;11674;52.428;13.584;2023-01-31T18:27:43;100704.09;;;7.57;84.24
23016;BME280;11674;52.428;13.584;2023-01-31T18:32:50;100702.72;;;7.60;84.13
23016;BME280;11674;52.428;13.584;2023-01-31T18:37:57;100706.31;;;7.60;84.13
23016;BME280;11674;52.428;13.584;2023-01-31T18:43:04;100678.16;;;7.63;84.05
23016;BME280;11674;52.428;13.584;2023-01-31T18:48:12;100689.47;;;7.67;84.10
23016;BME280;11674;52.428;13.584;2023-01-31T18:53:18;100681.78;;;7.69;84.02
23016;BME280;11674;52.428;13.584;2023-01-31T18:58:29;100673.50;;;7.74;84.01
23016;BME280;11674;52.428;13.584;2023-01-31T19:03:37;100659.97;;;7.77;84.02
23016;BME280;11674;52.428;13.584;2023-01-31T19:08:49;100666.88;;;7.75;83.92
23016;BME280;11674;52.428;13.584;2023-01-31T19:13:57;100658.84;;;7.73;84.10
23016;BME280;11674;52.428;13.584;2023-01-31T19:19:04;100671.28;;;7.81;84.02
23016;BME280;11674;52.428;13.584;2023-01-31T19:24:12;100664.94;;;7.90;84.06
23016;BME280;11674;52.428;13.584;2023-01-31T19:29:19;100686.78;;;8.02;83.93
23016;BME280;11674;52.428;13.584;2023-01-31T19:34:27;100667.44;;;8.12;83.77
23016;BME280;11674;52.428;13.584;2023-01-31T19:39:34;100687.88;;;8.26;83.86
23016;BME280;11674;52.428;13.584;2023-01-31T19:44:41;100741.97;;;7.82;80.51
23016;BME280;11674;52.428;13.584;2023-01-31T19:49:48;100771.75;;;5.99;79.06
23016;BME280;11674;52.428;13.584;2023-01-31T19:54:55;100745.22;;;5.40;81.73
23016;BME280;11674;52.428;13.584;2023-01-31T20:00:02;100734.03;;;5.25;82.93
23016;BME280;11674;52.428;13.584;2023-01-31T20:05:10;100713.75;;;5.31;83.67
23016;BME280;11674;52.428;13.584;2023-01-31T20:10:18;100714.97;;;5.40;83.80
23016;BME280;11674;52.428;13.584;2023-01-31T20:15:25;100728.88;;;5.55;84.20
23016;BME280;11674;52.428;13.584;2023-01-31T20:20:35;100746.63;;;5.69;84.19
23016;BME280;11674;52.428;13.584;2023-01-31T20:25:42;100733.06;;;5.84;84.07
23016;BME280;11674;52.428;13.584;2023-01-31T20:30:52;100735.06;;;5.93;83.88
23016;BME280;11674;52.428;13.584;2023-01-31T20:35:59;100731.59;;;6.03;83.80
23016;BME280;11674;52.428;13.584;2023-01-31T20:41:09;100753.13;;;6.11;83.82
23016;BME280;11674;52.428;13.584;2023-01-31T20:46:16;100761.25;;;6.22;83.92
23016;BME280;11674;52.428;13.584;2023-01-31T20:51:23;100754.47;;;6.35;84.00
23016;BME280;11674;52.428;13.584;2023-01-31T20:56:30;100765.53;;;6.45;83.77
23016;BME280;11674;52.428;13.584;2023-01-31T21:01:37;100779.94;;;6.52;83.62
23016;BME280;11674;52.428;13.584;2023-01-31T21:06:45;100776.09;;;6.53;83.47
23016;BME280;11674;52.428;13.584;2023-01-31T21:11:52;100776.63;;;6.55;83.55
23016;BME280;11674;52.428;13.584;2023-01-31T21:16:59;100804.25;;;6.60;83.53
23016;BME280;11674;52.428;13.584;2023-01-31T21:22:06;100825.78;;;6.63;83.55
23016;BME280;11674;52.428;13.584;2023-01-31T21:27:20;100813.94;;;6.67;83.39
23016;BME280;11674;52.428;13.584;2023-01-31T21:32:30;100799.06;;;6.68;83.29
23016;BME280;11674;52.428;13.584;2023-01-31T21:37:37;100824.53;;;6.80;83.60
23016;BME280;11674;52.428;13.584;2023-01-31T21:42:47;100811.94;;;6.94;83.69
23016;BME280;11674;52.428;13.584;2023-01-31T21:47:55;100814.50;;;7.06;83.44
23016;BME280;11674;52.428;13.584;2023-01-31T21:53:02;100835.06;;;6.88;82.81
23016;BME280;11674;52.428;13.584;2023-01-31T21:58:09;100870.88;;;6.52;82.48
23016;BME280;11674;52.428;13.584;2023-01-31T22:03:16;100805.78;;;5.88;81.52
23016;BME280;11674;52.428;13.584;2023-01-31T22:08:23;100831.16;;;5.52;82.63
23016;BME280;11674;52.428;13.584;2023-01-31T22:13:30;100852.66;;;5.33;82.98
23016;BME280;11674;52.428;13.584;2023-01-31T22:18:39;100848.88;;;5.18;83.14
23016;BME280;11674;52.428;13.584;2023-01-31T22:23:49;100847.63;;;5.09;83.36
23016;BME280;11674;52.428;13.584;2023-01-31T22:28:58;100830.22;;;5.03;83.41
23016;BME280;11674;52.428;13.584;2023-01-31T22:34:06;100834.28;;;5.01;83.49
23016;BME280;11674;52.428;13.584;2023-01-31T22:39:13;100833.03;;;5.08;83.78
23016;BME280;11674;52.428;13.584;2023-01-31T22:44:20;100829.34;;;5.19;84.09
23016;BME280;11674;52.428;13.584;2023-01-31T22:49:27;100835.50;;;5.26;83.95
23016;BME280;11674;52.428;13.584;2023-01-31T22:54:34;100820.75;;;5.32;83.94
23016;BME280;11674;52.428;13.584;2023-01-31T22:59:41;100816.50;;;5.46;84.23
23016;BME280;11674;52.428;13.584;2023-01-31T23:04:48;100811.19;;;5.61;84.19
23016;BME280;11674;52.428;13.584;2023-01-31T23:09:55;100818.47;;;5.72;84.04
23016;BME280;11674;52.428;13.584;2023-01-31T23:15:02;100823.31;;;5.82;83.90
23016;BME280;11674;52.428;13.584;2023-01-31T23:20:10;100830.84;;;5.91;83.83
23016;BME280;11674;52.428;13.584;2023-01-31T23:25:17;100836.78;;;6.05;83.81
23016;BME280;11674;52.428;13.584;2023-01-31T23:30:24;100833.03;;;6.16;83.81
23016;BME280;11674;52.428;13.584;2023-01-31T23:35:31;100826.53;;;6.27;83.71
23016;BME280;11674;52.428;13.584;2023-01-31T23:40:38;100808.44;;;6.36;83.45
23016;BME280;11674;52.428;13.584;2023-01-31T23:45:45;100824.72;;;6.37;83.25
23016;BME280;11674;52.428;13.584;2023-01-31T23:50:52;100823.97;;;6.47;83.29
23016;BME280;11674;52.428;13.584;2023-01-31T23:55:59;100809.16;;;6.53;83.09
